createdAt,value
2019-01-27T00:01:39.356Z,92.07
2019-01-27T00:04:10.136Z,92.31
2019-01-27T00:06:40.609Z,92.22
2019-01-27T00:09:12.722Z,92.40
2019-01-27T00:11:43.148Z,91.86
2019-01-27T00:14:13.619Z,92.13
2019-01-27T00:16:44.047Z,91.95
2019-01-27T00:19:14.466Z,92.24
2019-01-27T00:21:44.942Z,92.48
2019-01-27T00:24:15.367Z,92.59
2019-01-27T00:26:46.146Z,92.67
2019-01-27T00:29:17.398Z,92.50
2019-01-27T00:31:47.840Z,92.16
2019-01-27T00:34:18.252Z,92.37
2019-01-27T00:36:48.732Z,92.79
2019-01-27T00:39:19.286Z,92.79
2019-01-27T00:41:49.707Z,92.84
2019-01-27T00:44:20.162Z,92.79
2019-01-27T00:46:50.914Z,92.92
2019-01-27T00:49:21.336Z,92.88
2019-01-27T00:51:51.817Z,92.62
2019-01-27T00:54:22.568Z,92.68
2019-01-27T00:56:52.989Z,92.76
2019-01-27T00:59:23.458Z,92.66
2019-01-27T01:01:53.911Z,92.40
2019-01-27T01:04:24.794Z,92.47
2019-01-27T01:06:55.265Z,92.32
2019-01-27T01:09:25.694Z,92.46
2019-01-27T01:11:56.119Z,92.58
2019-01-27T01:14:26.590Z,92.77
2019-01-27T01:16:57.013Z,92.92
2019-01-27T01:19:27.783Z,93.14
2019-01-27T01:21:58.251Z,93.20
2019-01-27T01:24:28.752Z,93.15
2019-01-27T01:26:59.181Z,92.97
2019-01-27T01:29:29.663Z,92.86
2019-01-27T01:32:00.151Z,92.94
2019-01-27T01:34:30.842Z,92.46
2019-01-27T01:37:01.290Z,92.50
2019-01-27T01:39:31.721Z,92.44
2019-01-27T01:42:02.598Z,92.57
2019-01-27T01:44:33.026Z,92.51
2019-01-27T01:47:03.451Z,92.08
2019-01-27T01:49:33.897Z,92.28
2019-01-27T01:52:04.589Z,92.29
2019-01-27T01:54:35.059Z,92.32
2019-01-27T01:57:05.482Z,92.26
2019-01-27T01:59:35.977Z,92.33
2019-01-27T02:02:06.754Z,92.28
2019-01-27T02:04:37.174Z,92.20
2019-01-27T02:07:07.747Z,91.98
2019-01-27T02:09:38.169Z,92.27
2019-01-27T02:12:08.632Z,92.19
2019-01-27T02:14:39.075Z,92.22
2019-01-27T02:17:09.495Z,92.36
2019-01-27T02:19:39.947Z,92.43
2019-01-27T02:22:10.731Z,92.77
2019-01-27T02:24:41.199Z,93.08
2019-01-27T02:27:11.983Z,92.95
2019-01-27T02:29:42.402Z,92.95
2019-01-27T02:32:12.853Z,92.87
2019-01-27T02:34:43.281Z,92.39
2019-01-27T02:37:13.748Z,92.97
2019-01-27T02:39:44.172Z,92.59
2019-01-27T02:42:14.990Z,92.79
2019-01-27T02:44:45.436Z,93.04
2019-01-27T02:47:15.867Z,93.60
2019-01-27T02:49:46.323Z,93.16
2019-01-27T02:52:16.739Z,93.59
2019-01-27T02:54:47.171Z,93.51
2019-01-27T02:57:17.991Z,93.46
2019-01-27T02:59:48.408Z,93.46
2019-01-27T03:02:18.911Z,93.57
2019-01-27T03:04:49.331Z,93.22
2019-01-27T03:07:26.721Z,93.03
2019-01-27T03:09:57.143Z,92.88
2019-01-27T03:12:27.642Z,92.63
2019-01-27T03:14:58.097Z,92.58
2019-01-27T03:17:28.515Z,92.45
2019-01-27T03:19:59.391Z,92.28
2019-01-27T03:22:29.807Z,92.47
2019-01-27T03:25:00.620Z,92.44
2019-01-27T03:27:31.580Z,92.22
2019-01-27T03:30:01.997Z,92.47
2019-01-27T03:32:32.474Z,92.17
2019-01-27T03:35:03.062Z,92.01
2019-01-27T03:37:33.890Z,92.19
2019-01-27T03:40:05.670Z,92.24
2019-01-27T03:42:36.089Z,92.20
2019-01-27T03:45:07.322Z,91.83
2019-01-27T03:47:37.745Z,91.75
2019-01-27T03:50:11.405Z,91.49
2019-01-27T03:52:41.850Z,91.79
2019-01-27T03:55:15.132Z,91.37
2019-01-27T03:57:45.596Z,91.68
2019-01-27T04:00:20.511Z,91.66
2019-01-27T04:02:50.999Z,91.74
2019-01-27T04:05:22.364Z,91.92
2019-01-27T04:07:53.273Z,92.05
2019-01-27T04:10:23.856Z,92.01
2019-01-27T04:12:54.377Z,91.75
2019-01-27T04:15:24.852Z,91.62
2019-01-27T04:17:55.277Z,91.42
2019-01-27T04:20:26.602Z,91.55
2019-01-27T04:22:57.157Z,91.62
2019-01-27T04:25:27.572Z,91.80
2019-01-27T04:27:58.099Z,91.79
2019-01-27T04:30:33.877Z,91.94
2019-01-27T04:33:04.580Z,92.33
2019-01-27T04:35:35.011Z,92.24
2019-01-27T04:38:06.025Z,92.30
2019-01-27T04:40:36.468Z,92.37
2019-01-27T04:43:06.891Z,92.38
2019-01-27T04:45:38.448Z,92.75
2019-01-27T04:48:10.040Z,92.72
2019-01-27T04:50:40.774Z,92.48
2019-01-27T04:53:11.775Z,92.37
2019-01-27T04:55:42.198Z,92.38
2019-01-27T04:58:13.040Z,92.51
2019-01-27T05:00:43.844Z,92.44
2019-01-27T05:03:48.716Z,92.82
2019-01-27T05:06:19.719Z,92.17
2019-01-27T05:08:50.564Z,92.27
2019-01-27T05:11:21.580Z,92.53
2019-01-27T05:13:51.995Z,92.38
2019-01-27T05:16:22.464Z,92.75
2019-01-27T05:18:52.891Z,92.74
2019-01-27T05:21:23.316Z,93.08
2019-01-27T05:23:53.785Z,93.04
2019-01-27T05:26:24.214Z,93.27
2019-01-27T05:28:54.629Z,93.48
2019-01-27T05:31:25.092Z,93.37
2019-01-27T05:33:55.508Z,93.26
2019-01-27T05:36:25.930Z,93.25
2019-01-27T05:38:56.778Z,93.04
2019-01-27T05:41:27.202Z,92.87
2019-01-27T05:43:57.627Z,92.53
2019-01-27T05:46:29.056Z,92.62
2019-01-27T05:48:59.481Z,92.64
2019-01-27T05:51:29.899Z,92.60
2019-01-27T05:54:00.368Z,92.29
2019-01-27T05:56:30.790Z,92.39
2019-01-27T05:59:01.207Z,92.26
2019-01-27T06:01:32.040Z,92.13
2019-01-27T06:04:02.472Z,92.04
2019-01-27T06:06:32.899Z,92.04
2019-01-27T06:09:05.261Z,92.05
2019-01-27T06:11:35.684Z,92.41
2019-01-27T06:14:06.217Z,92.47
2019-01-27T06:16:36.682Z,91.96
2019-01-27T06:19:07.096Z,92.14
2019-01-27T06:21:37.517Z,92.16
2019-01-27T06:24:08.071Z,92.14
2019-01-27T06:26:38.497Z,91.95
2019-01-27T06:29:08.923Z,92.10
2019-01-27T06:31:39.386Z,92.24
2019-01-27T06:34:13.590Z,92.40
2019-01-27T06:36:44.050Z,92.41
2019-01-27T06:39:14.474Z,92.36
2019-01-27T06:41:44.892Z,92.47
2019-01-27T06:44:15.351Z,92.06
2019-01-27T06:46:46.135Z,92.14
2019-01-27T06:49:16.921Z,92.36
2019-01-27T06:51:47.394Z,92.11
2019-01-27T06:54:17.827Z,92.02
2019-01-27T06:56:48.657Z,92.16
2019-01-27T06:59:35.531Z,92.11
2019-01-27T07:02:12.980Z,91.88
2019-01-27T07:05:03.852Z,91.87
2019-01-27T07:07:56.347Z,91.67
2019-01-27T07:10:44.486Z,91.46
2019-01-27T07:13:32.763Z,91.56
2019-01-27T07:16:21.418Z,91.44
2019-01-27T07:19:06.245Z,91.21
2019-01-27T07:21:55.795Z,91.49
2019-01-27T07:24:35.451Z,91.30
2019-01-27T07:27:27.975Z,91.32
2019-01-27T07:30:23.420Z,91.25
2019-01-27T07:33:05.232Z,91.02
2019-01-27T07:35:51.498Z,91.09
2019-01-27T07:38:30.488Z,90.81
2019-01-27T07:41:22.859Z,90.83
2019-01-27T07:44:21.399Z,90.92
2019-01-27T07:47:16.864Z,91.10
2019-01-27T07:50:02.852Z,91.00
2019-01-27T07:52:55.117Z,91.00
2019-01-27T07:55:40.446Z,91.48
2019-01-27T07:58:20.657Z,91.29
2019-01-27T08:01:22.469Z,91.22
2019-01-27T08:04:10.509Z,91.20
2019-01-27T08:06:54.627Z,91.24
2019-01-27T08:09:43.932Z,91.19
2019-01-27T08:12:25.679Z,91.88
2019-01-27T08:15:33.393Z,92.10
2019-01-27T08:18:17.068Z,91.99
2019-01-27T08:21:03.338Z,91.83
2019-01-27T08:23:55.805Z,91.80
2019-01-27T08:26:49.824Z,91.77
2019-01-27T08:29:34.422Z,91.42
2019-01-27T08:32:33.008Z,91.26
2019-01-27T08:35:25.606Z,91.56
2019-01-27T08:38:17.298Z,90.91
2019-01-27T08:41:04.643Z,91.69
2019-01-27T08:43:53.042Z,91.83
2019-01-27T08:46:30.486Z,92.13
2019-01-27T08:49:00.912Z,91.85
2019-01-27T08:51:31.332Z,92.05
2019-01-27T08:54:02.448Z,92.06
2019-01-27T08:56:32.880Z,92.35
2019-01-27T08:59:03.663Z,92.27
2019-01-27T09:02:03.832Z,92.34
2019-01-27T09:04:48.604Z,92.27
2019-01-27T09:07:47.030Z,92.73
2019-01-27T09:10:54.865Z,92.62
2019-01-27T09:13:44.323Z,92.68
2019-01-27T09:16:32.130Z,92.94
2019-01-27T09:19:15.041Z,93.01
2019-01-27T09:21:55.478Z,93.02
2019-01-27T09:24:54.197Z,93.11
2019-01-27T09:27:38.850Z,92.53
2019-01-27T09:30:51.125Z,92.09
2019-01-27T09:33:43.605Z,92.00
2019-01-27T09:36:31.863Z,91.55
2019-01-27T09:39:36.362Z,91.43
2019-01-27T09:42:28.554Z,91.06
2019-01-27T09:45:20.795Z,90.81
2019-01-27T09:48:01.907Z,90.18
2019-01-27T09:50:43.842Z,89.94
2019-01-27T09:53:33.192Z,89.57
2019-01-27T09:56:18.888Z,89.78
2019-01-27T09:59:03.675Z,89.84
2019-01-27T10:01:59.280Z,89.97
2019-01-27T10:04:50.097Z,90.40
2019-01-27T10:07:42.467Z,90.83
2019-01-27T10:10:26.095Z,91.35
2019-01-27T10:13:18.261Z,90.80
2019-01-27T10:16:07.301Z,90.54
2019-01-27T10:19:06.259Z,91.08
2019-01-27T10:21:51.578Z,89.75
2019-01-27T10:24:39.987Z,89.95
2019-01-27T10:27:28.358Z,89.81
2019-01-27T10:30:23.564Z,89.70
2019-01-27T10:33:16.106Z,89.43
2019-01-27T10:36:08.520Z,88.93
2019-01-27T10:39:04.314Z,88.84
2019-01-27T10:41:42.852Z,87.95
2019-01-27T10:44:20.484Z,87.32
2019-01-27T10:47:05.253Z,86.61
2019-01-27T10:49:50.164Z,86.14
2019-01-27T10:52:45.582Z,84.54
2019-01-27T10:55:22.842Z,84.54
2019-01-27T10:58:11.228Z,84.53
2019-01-27T11:01:06.465Z,84.41
2019-01-27T11:03:47.902Z,83.91
2019-01-27T11:06:28.086Z,82.64
2019-01-27T11:09:16.185Z,82.98
2019-01-27T11:12:23.776Z,82.48
2019-01-27T11:15:24.903Z,82.04
2019-01-27T11:18:17.127Z,82.73
2019-01-27T11:21:09.452Z,82.23
2019-01-27T11:23:57.683Z,81.75
2019-01-27T11:26:48.172Z,82.02
2019-01-27T11:29:43.368Z,81.98
2019-01-27T11:32:31.777Z,82.33
2019-01-27T11:35:21.129Z,80.45
2019-01-27T11:38:04.798Z,81.59
2019-01-27T11:40:54.168Z,82.92
2019-01-27T11:43:44.004Z,84.27
2019-01-27T11:46:33.358Z,85.27
2019-01-27T11:49:14.978Z,84.07
2019-01-27T11:51:56.460Z,83.75
2019-01-27T11:54:27.743Z,83.40
2019-01-27T11:56:58.173Z,83.11
2019-01-27T11:59:28.761Z,84.11
2019-01-27T12:01:59.243Z,84.55
2019-01-27T12:04:29.691Z,84.62
2019-01-27T12:07:02.311Z,85.20
2019-01-27T12:09:33.688Z,84.11
2019-01-27T12:12:04.738Z,84.35
2019-01-27T12:14:35.171Z,84.13
2019-01-27T12:17:05.615Z,84.71
2019-01-27T12:19:40.210Z,83.78
2019-01-27T12:22:08.551Z,84.14
2019-01-27T12:24:39.020Z,83.24
2019-01-27T12:27:09.464Z,81.05
2019-01-27T12:29:39.920Z,80.29
2019-01-27T12:32:10.379Z,80.37
2019-01-27T12:34:41.591Z,77.57
2019-01-27T12:37:12.057Z,79.89
2019-01-27T12:39:42.478Z,80.16
2019-01-27T12:42:12.983Z,79.49
2019-01-27T12:44:43.440Z,79.87
2019-01-27T12:47:13.863Z,79.65
2019-01-27T12:49:44.325Z,79.75
2019-01-27T12:52:15.075Z,79.96
2019-01-27T12:54:46.239Z,80.13
2019-01-27T12:57:16.680Z,80.33
2019-01-27T12:59:47.101Z,79.02
2019-01-27T13:02:17.955Z,79.28
2019-01-27T13:04:48.379Z,78.35
2019-01-27T13:07:19.178Z,78.88
2019-01-27T13:09:50.018Z,78.48
2019-01-27T13:12:20.757Z,77.01
2019-01-27T13:14:56.615Z,76.69
2019-01-27T13:17:27.050Z,76.14
2019-01-27T13:19:57.582Z,76.25
2019-01-27T13:22:28.424Z,75.02
2019-01-27T13:24:58.890Z,75.88
2019-01-27T13:27:29.310Z,76.97
2019-01-27T13:30:00.138Z,77.31
2019-01-27T13:32:30.650Z,76.79
2019-01-27T13:35:01.520Z,77.09
2019-01-27T13:37:32.001Z,77.81
2019-01-27T13:40:05.294Z,77.23
2019-01-27T13:42:37.000Z,77.49
2019-01-27T13:45:08.749Z,78.05
2019-01-27T13:47:39.183Z,78.88
2019-01-27T13:50:10.867Z,78.52
2019-01-27T13:52:41.788Z,78.30
2019-01-27T13:55:15.568Z,78.52
2019-01-27T13:57:46.430Z,78.25
2019-01-27T14:00:19.795Z,77.81
2019-01-27T14:02:50.281Z,79.35
2019-01-27T14:05:21.200Z,79.26
2019-01-27T14:07:51.646Z,79.15
2019-01-27T14:10:24.111Z,79.59
2019-01-27T14:12:55.046Z,79.76
2019-01-27T14:15:28.199Z,79.70
2019-01-27T14:17:58.679Z,78.62
2019-01-27T14:20:29.234Z,79.35
2019-01-27T14:23:00.342Z,79.48
2019-01-27T14:25:31.186Z,79.65
2019-01-27T14:28:01.616Z,80.15
2019-01-27T14:30:34.595Z,79.53
2019-01-27T14:33:05.570Z,80.85
2019-01-27T14:35:36.006Z,80.97
2019-01-27T14:38:06.599Z,79.71
2019-01-27T14:40:37.396Z,80.14
2019-01-27T14:43:07.956Z,81.67
2019-01-27T14:45:38.401Z,82.40
2019-01-27T14:48:09.186Z,82.77
2019-01-27T14:50:42.734Z,83.14
2019-01-27T14:53:13.281Z,83.89
2019-01-27T14:55:44.672Z,84.35
2019-01-27T14:58:15.101Z,83.70
2019-01-27T15:00:45.832Z,85.10
2019-01-27T15:03:16.479Z,84.23
2019-01-27T15:05:46.917Z,85.03
2019-01-27T15:08:17.795Z,85.22
2019-01-27T15:10:48.511Z,84.68
2019-01-27T15:13:19.395Z,84.52
2019-01-27T15:15:49.828Z,84.55
2019-01-27T15:18:20.249Z,84.78
2019-01-27T15:21:04.316Z,84.71
2019-01-27T15:23:37.232Z,85.41
2019-01-27T15:26:08.385Z,85.45
2019-01-27T15:28:40.818Z,85.33
2019-01-27T15:31:13.639Z,84.91
2019-01-27T15:33:44.410Z,85.53
2019-01-27T15:36:14.837Z,85.71
2019-01-27T15:38:45.304Z,85.96
2019-01-27T15:41:15.810Z,86.42
2019-01-27T15:43:48.731Z,86.53
2019-01-27T15:46:18.774Z,86.90
2019-01-27T15:48:50.316Z,86.55
2019-01-27T15:51:21.238Z,87.03
2019-01-27T15:53:51.655Z,86.64
2019-01-27T15:56:22.128Z,86.72
2019-01-27T15:58:52.999Z,86.44
2019-01-27T16:01:23.479Z,86.27
2019-01-27T16:03:53.958Z,86.58
2019-01-27T16:06:24.398Z,87.15
2019-01-27T16:08:54.856Z,87.31
2019-01-27T16:11:25.278Z,87.09
2019-01-27T16:13:56.201Z,87.62
2019-01-27T16:16:26.649Z,87.24
2019-01-27T16:18:58.962Z,87.27
2019-01-27T16:21:29.243Z,87.37
2019-01-27T16:24:03.311Z,87.64
2019-01-27T16:26:34.525Z,87.82
2019-01-27T16:29:05.358Z,87.46
2019-01-27T16:32:00.899Z,87.38
2019-01-27T16:34:40.597Z,86.75
2019-01-27T16:37:11.066Z,87.20
2019-01-27T16:39:42.251Z,87.21
2019-01-27T16:42:12.720Z,87.14
2019-01-27T16:44:43.999Z,87.90
2019-01-27T16:47:18.815Z,87.24
2019-01-27T16:49:47.000Z,87.24
2019-01-27T16:52:17.483Z,87.01
2019-01-27T16:54:48.292Z,87.10
2019-01-27T16:57:19.455Z,87.05
2019-01-27T16:59:49.923Z,87.66
2019-01-27T17:02:20.387Z,87.52
2019-01-27T17:04:50.816Z,87.19
2019-01-27T17:07:21.274Z,87.05
2019-01-27T17:09:51.715Z,87.45
2019-01-27T17:12:22.183Z,87.53
2019-01-27T17:14:54.460Z,87.98
2019-01-27T17:17:24.912Z,87.15
2019-01-27T17:20:02.329Z,86.93
2019-01-27T17:22:27.495Z,87.11
2019-01-27T17:24:57.926Z,87.57
2019-01-27T17:27:28.404Z,87.64
2019-01-27T17:29:58.999Z,87.25
2019-01-27T17:32:29.450Z,87.49
2019-01-27T17:34:59.881Z,87.45
2019-01-27T17:37:31.907Z,87.91
2019-01-27T17:40:10.028Z,87.87
2019-01-27T17:42:40.499Z,87.98
2019-01-27T17:45:16.271Z,88.26
2019-01-27T17:47:47.336Z,87.90
2019-01-27T17:50:18.412Z,87.74
2019-01-27T17:52:50.819Z,88.06
2019-01-27T17:55:40.939Z,88.09
2019-01-27T17:58:39.534Z,88.29
2019-01-27T18:01:28.909Z,88.16
2019-01-27T18:04:17.091Z,88.06
2019-01-27T18:07:25.344Z,88.79
2019-01-27T18:10:13.998Z,88.12
2019-01-27T18:13:15.494Z,88.44
2019-01-27T18:15:46.728Z,88.59
2019-01-27T18:18:17.337Z,88.58
2019-01-27T18:20:48.187Z,88.43
2019-01-27T18:23:18.694Z,88.63
2019-01-27T18:25:50.205Z,87.89
2019-01-27T18:28:20.722Z,88.28
2019-01-27T18:30:51.151Z,88.34
2019-01-27T18:33:24.111Z,88.41
2019-01-27T18:35:54.646Z,87.79
2019-01-27T18:38:25.157Z,88.16
2019-01-27T18:40:55.606Z,88.12
2019-01-27T18:43:26.038Z,88.39
2019-01-27T18:45:57.286Z,88.35
2019-01-27T18:48:27.688Z,88.65
2019-01-27T18:50:58.834Z,88.49
2019-01-27T18:53:46.917Z,88.92
2019-01-27T18:56:31.283Z,89.33
2019-01-27T18:59:20.659Z,89.77
2019-01-27T19:02:13.837Z,90.07
2019-01-27T19:05:05.540Z,90.23
2019-01-27T19:08:01.011Z,90.57
2019-01-27T19:10:38.366Z,90.78
2019-01-27T19:13:38.163Z,90.25
2019-01-27T19:16:40.227Z,90.02
2019-01-27T19:19:26.311Z,90.17
2019-01-27T19:22:14.311Z,90.00
2019-01-27T19:25:03.703Z,90.07
2019-01-27T19:28:09.910Z,89.85
2019-01-27T19:31:03.076Z,90.38
2019-01-27T19:34:05.704Z,91.21
2019-01-27T19:36:51.594Z,91.71
2019-01-27T19:39:50.002Z,91.98
2019-01-27T19:42:42.161Z,92.17
2019-01-27T19:45:34.647Z,90.34
2019-01-27T19:48:27.392Z,90.48
2019-01-27T19:51:29.090Z,90.97
2019-01-27T19:54:18.501Z,91.74
2019-01-27T19:57:03.644Z,92.15
2019-01-27T19:59:46.511Z,92.41
2019-01-27T20:02:37.171Z,92.06
2019-01-27T20:05:36.351Z,91.86
2019-01-27T20:08:16.591Z,91.54
2019-01-27T20:11:11.969Z,91.65
2019-01-27T20:14:02.079Z,92.30
2019-01-27T20:16:50.304Z,92.51
2019-01-27T20:19:44.016Z,92.37
2019-01-27T20:22:21.889Z,92.76
2019-01-27T20:25:04.879Z,92.46
2019-01-27T20:27:57.679Z,91.96
2019-01-27T20:30:58.439Z,91.48
2019-01-27T20:33:50.748Z,91.16
2019-01-27T20:36:43.785Z,90.89
2019-01-27T20:39:25.089Z,90.58
2019-01-27T20:42:23.507Z,90.58
2019-01-27T20:45:11.751Z,90.72
2019-01-27T20:48:01.104Z,90.71
2019-01-27T20:50:57.951Z,90.52
2019-01-27T20:53:50.352Z,90.71
2019-01-27T20:56:40.542Z,90.95
2019-01-27T20:59:21.299Z,90.38
2019-01-27T21:02:23.259Z,90.44
2019-01-27T21:05:12.030Z,90.13
2019-01-27T21:07:47.843Z,89.76
2019-01-27T21:10:36.125Z,89.91
2019-01-27T21:13:28.657Z,89.68
2019-01-27T21:16:14.471Z,89.24
2019-01-27T21:18:53.009Z,89.16
2019-01-27T21:21:23.447Z,89.20
2019-01-27T21:23:53.934Z,88.91
2019-01-27T21:26:24.450Z,88.59
2019-01-27T21:28:57.514Z,88.44
2019-01-27T21:31:27.942Z,88.50
2019-01-27T21:33:58.404Z,88.89
2019-01-27T21:36:28.832Z,88.55
2019-01-27T21:39:00.182Z,88.58
2019-01-27T21:41:30.679Z,88.53
2019-01-27T21:44:01.271Z,88.58
2019-01-27T21:46:32.295Z,88.69
2019-01-27T21:49:02.783Z,88.40
2019-01-27T21:51:33.213Z,88.83
2019-01-27T21:54:04.069Z,88.47
2019-01-27T21:56:34.548Z,88.75
2019-01-27T21:59:05.560Z,88.72
2019-01-27T22:01:36.404Z,89.23
2019-01-27T22:04:06.891Z,89.61
2019-01-27T22:06:37.336Z,89.09
2019-01-27T22:09:10.232Z,89.19
2019-01-27T22:11:40.719Z,88.98
2019-01-27T22:14:11.579Z,89.68
2019-01-27T22:16:42.011Z,89.57
2019-01-27T22:19:12.486Z,89.42
2019-01-27T22:21:43.081Z,89.29
2019-01-27T22:24:13.503Z,89.07
2019-01-27T22:26:43.979Z,89.14
2019-01-27T22:29:14.402Z,89.25
2019-01-27T22:31:44.830Z,89.37
2019-01-27T22:34:15.295Z,89.27
2019-01-27T22:36:45.720Z,89.23
2019-01-27T22:39:16.538Z,89.38
2019-01-27T22:41:47.008Z,89.44
2019-01-27T22:44:17.432Z,89.09
2019-01-27T22:46:47.867Z,89.31
2019-01-27T22:49:18.343Z,89.37
2019-01-27T22:51:48.791Z,88.96
2019-01-27T22:54:19.215Z,89.46
2019-01-27T22:56:49.695Z,90.47
2019-01-27T22:59:20.119Z,90.90
2019-01-27T23:01:51.010Z,90.95
2019-01-27T23:04:21.483Z,91.11
2019-01-27T23:06:51.904Z,91.31
2019-01-27T23:09:22.327Z,91.69
2019-01-27T23:11:53.069Z,91.03
2019-01-27T23:14:23.491Z,91.32
2019-01-27T23:16:53.909Z,91.52
2019-01-27T23:19:24.380Z,91.69
2019-01-27T23:21:54.813Z,90.84
2019-01-27T23:24:25.917Z,90.43
2019-01-27T23:26:56.835Z,89.62
2019-01-27T23:29:27.726Z,90.11
2019-01-27T23:31:58.154Z,89.22
2019-01-27T23:34:28.960Z,89.65
2019-01-27T23:36:59.386Z,89.75
2019-01-27T23:39:29.974Z,89.66
2019-01-27T23:42:00.718Z,89.42
2019-01-27T23:44:31.148Z,89.40
2019-01-27T23:47:01.639Z,89.10
2019-01-27T23:49:32.071Z,88.80
2019-01-27T23:52:02.489Z,88.77
2019-01-27T23:54:32.954Z,89.52
2019-01-27T23:57:03.380Z,89.15
2019-01-27T23:59:33.794Z,89.09
